Time;durP1;ratioP1;P1;durP2;ratioP2;P2;SDS_P1;SDS_P2;PMS_P1;PMS_P2;Temp;Humidity;BMP_temperature;BMP_pressure;BME280_temperature;BME280_humidity;BME280_pressure;Samples;Min_cycle;Max_cycle;Signal;HPM_P1;HPM_P2
2021/05/31 00:00:30;;;;;;;44.67;40.83;;;;;;;13.24;100.00;101120.72;5040975;28;20060;-88
2021/05/31 00:02:57;;;;;;;46.95;43.17;;;;;;;13.09;100.00;101113.00;5041626;28;20083;-86
2021/05/31 00:05:25;;;;;;;46.85;43.05;;;;;;;13.05;100.00;101115.28;5047342;28;20041;-86
2021/05/31 00:07:53;;;;;;;43.90;40.10;;;;;;;13.02;100.00;101118.38;5046545;28;20131;-87
2021/05/31 00:10:19;;;;;;;44.65;41.05;;;;;;;13.06;100.00;101113.44;5047470;28;20049;-86
2021/05/31 00:12:46;;;;;;;42.65;39.03;;;;;;;13.01;100.00;101111.41;5045843;28;20064;-86
2021/05/31 00:15:15;;;;;;;62.38;57.47;;;;;;;13.08;100.00;101108.72;5042205;28;20045;-85
2021/05/31 00:17:42;;;;;;;52.53;48.28;;;;;;;13.06;100.00;101119.56;5046754;28;20073;-86
2021/05/31 00:20:12;;;;;;;47.70;43.90;;;;;;;13.05;100.00;101107.28;5038018;28;20049;-87
2021/05/31 00:22:41;;;;;;;43.67;40.22;;;;;;;12.76;100.00;101102.47;5047149;28;20107;-87
2021/05/31 00:25:08;;;;;;;41.22;37.92;;;;;;;12.76;100.00;101102.47;5046952;28;20543;-87
2021/05/31 00:27:35;;;;;;;41.38;37.97;;;;;;;12.91;100.00;101110.22;5048197;28;20121;-86
2021/05/31 00:30:04;;;;;;;46.03;42.42;;;;;;;12.87;100.00;101106.34;5050709;28;20044;-87
2021/05/31 00:32:32;;;;;;;45.83;42.13;;;;;;;12.97;100.00;101102.19;5050154;28;20041;-87
2021/05/31 00:34:58;;;;;;;44.42;40.78;;;;;;;12.76;100.00;101102.47;5050782;28;20057;-87
2021/05/31 00:37:26;;;;;;;45.15;41.55;;;;;;;12.81;100.00;101103.47;5047284;28;20052;-86
2021/05/31 00:39:52;;;;;;;39.95;36.55;;;;;;;12.80;100.00;101103.72;5053705;28;20049;-87
2021/05/31 00:42:22;;;;;;;46.42;42.58;;;;;;;12.78;100.00;101090.56;5051481;28;20430;-86
2021/05/31 00:44:49;;;;;;;44.05;40.33;;;;;;;12.67;100.00;101095.75;5050408;28;20077;-87
2021/05/31 00:47:24;;;;;;;40.83;37.53;;;;;;;12.85;100.00;101090.53;5052888;28;20049;-85
2021/05/31 00:49:50;;;;;;;39.90;36.50;;;;;;;12.81;100.00;101094.69;5046018;28;20045;-86
2021/05/31 00:52:18;;;;;;;44.20;40.70;;;;;;;12.74;100.00;101094.72;5049033;28;20049;-86
2021/05/31 00:54:50;;;;;;;44.45;40.95;;;;;;;12.75;100.00;101092.84;5049000;28;20080;-86
2021/05/31 00:57:17;;;;;;;47.55;43.83;;;;;;;12.85;100.00;101101.22;5040527;28;20504;-86
2021/05/31 01:02:29;;;;;;;43.10;39.53;;;;;;;12.85;100.00;101079.88;5050241;28;20057;-86
2021/05/31 01:04:56;;;;;;;49.80;45.90;;;;;;;12.83;100.00;101082.78;5049306;28;20044;-86
2021/05/31 01:07:46;;;;;;;45.97;42.22;;;;;;;12.79;100.00;101089.53;5051752;28;21336;-86
2021/05/31 01:10:22;;;;;;;42.38;38.88;;;;;;;12.81;100.00;101087.50;5054730;28;20057;-87
2021/05/31 01:12:58;;;;;;;44.45;40.63;;;;;;;12.84;100.00;101078.25;5051519;28;20128;-87
2021/05/31 01:15:31;;;;;;;38.17;34.97;;;;;;;12.86;100.00;101076.22;5049296;28;20045;-87
2021/05/31 01:18:05;;;;;;;40.92;37.33;;;;;;;12.76;100.00;101081.97;5048867;28;20044;-86
2021/05/31 01:21:14;;;;;;;41.42;37.83;;;;;;;12.67;100.00;101077.91;5047227;28;20045;-86
2021/05/31 01:23:56;;;;;;;46.05;42.53;;;;;;;12.72;100.00;101067.44;5041957;28;20041;-86
2021/05/31 01:26:35;;;;;;;43.67;40.08;;;;;;;12.76;100.00;101076.63;5053684;28;20048;-85
2021/05/31 01:29:25;;;;;;;40.20;36.80;;;;;;;12.67;100.00;101079.75;5048775;28;20041;-86
2021/05/31 01:31:57;;;;;;;42.65;39.28;;;;;;;12.58;100.00;101076.50;5047334;28;20057;-86
2021/05/31 01:34:27;;;;;;;47.22;43.20;;;;;;;12.77;100.00;101069.47;5046516;28;20506;-86
2021/05/31 01:37:09;;;;;;;48.90;44.80;;;;;;;12.78;100.00;101076.44;5046989;28;20045;-86
2021/05/31 01:39:39;;;;;;;49.20;45.33;;;;;;;12.73;100.00;101082.38;5049051;28;20048;-85
2021/05/31 01:42:09;;;;;;;41.08;37.78;;;;;;;12.69;100.00;101075.84;5050743;28;20049;-87
2021/05/31 01:44:40;;;;;;;51.38;47.28;;;;;;;12.68;100.00;101073.38;5050156;28;20048;-85
2021/05/31 01:47:10;;;;;;;47.15;43.25;;;;;;;12.70;100.00;101072.16;5049371;28;20056;-86
2021/05/31 01:49:38;;;;;;;45.33;41.42;;;;;;;12.71;100.00;101071.13;5044375;28;20403;-86
2021/05/31 01:52:06;;;;;;;43.30;39.72;;;;;;;12.35;100.00;101072.47;5034556;28;20065;-86
2021/05/31 01:54:34;;;;;;;42.05;38.50;;;;;;;12.43;100.00;101074.09;5047597;28;20056;-87
2021/05/31 01:57:04;;;;;;;39.58;36.35;;;;;;;12.46;100.00;101072.84;5047844;28;20041;-87
2021/05/31 01:59:37;;;;;;;40.17;37.00;;;;;;;12.39;100.00;101078.22;5040243;28;20538;-86
2021/05/31 02:02:13;;;;;;;40.55;37.28;;;;;;;12.47;100.00;101074.50;5050633;23;20044;-79
2021/05/31 02:04:39;;;;;;;41.28;37.97;;;;;;;12.10;100.00;101071.50;5059431;28;20107;-79
2021/05/31 02:07:05;;;;;;;37.72;34.58;;;;;;;12.12;100.00;101080.09;5064922;28;20460;-77
2021/05/31 02:09:32;;;;;;;33.53;30.65;;;;;;;12.22;100.00;101079.66;5060699;28;20051;-82
2021/05/31 02:12:06;;;;;;;34.65;31.65;;;;;;;12.46;100.00;101072.84;5061134;28;20052;-80
2021/05/31 02:14:46;;;;;;;34.75;31.63;;;;;;;12.14;100.00;101091.38;5062996;28;20048;-79
2021/05/31 02:17:21;;;;;;;39.08;35.67;;;;;;;12.28;100.00;101081.50;5067852;28;20475;-78
2021/05/31 02:19:53;;;;;;;38.38;34.90;;;;;;;12.06;100.00;101086.25;5067444;28;20123;-78
2021/05/31 02:22:21;;;;;;;40.72;37.13;;;;;;;12.09;100.00;101085.84;5066427;28;20447;-78
2021/05/31 02:24:51;;;;;;;39.28;35.88;;;;;;;12.01;100.00;101086.88;5065956;28;20040;-78
2021/05/31 02:27:18;;;;;;;37.70;34.42;;;;;;;12.02;100.00;101083.19;5068714;28;20114;-79
2021/05/31 02:29:44;;;;;;;40.15;36.95;;;;;;;12.17;100.00;101077.66;5065118;28;20060;-79
2021/05/31 02:32:11;;;;;;;41.92;38.53;;;;;;;12.03;100.00;101079.50;5068070;28;20472;-80
2021/05/31 02:34:38;;;;;;;41.40;37.80;;;;;;;12.13;100.00;101087.91;5066681;28;20106;-79
2021/05/31 02:37:06;;;;;;;36.80;33.60;;;;;;;12.13;100.00;101079.06;5064483;28;20045;-79
2021/05/31 02:39:32;;;;;;;38.88;35.78;;;;;;;12.18;100.00;101081.13;5066173;28;20504;-80
2021/05/31 02:41:59;;;;;;;64.20;59.42;;;;;;;11.95;100.00;101077.03;5064342;28;20435;-79
2021/05/31 02:44:25;;;;;;;39.55;36.33;;;;;;;11.97;100.00;101087.50;5061819;28;20477;-79
2021/05/31 02:46:51;;;;;;;45.75;42.30;;;;;;;11.78;100.00;101084.59;5066143;28;20476;-80
2021/05/31 02:49:18;;;;;;;44.90;41.40;;;;;;;11.69;100.00;101080.50;5065314;28;20060;-79
2021/05/31 02:51:45;;;;;;;46.67;42.92;;;;;;;11.84;100.00;101083.78;5059378;28;20546;-78
2021/05/31 02:54:13;;;;;;;49.00;45.40;;;;;;;11.83;100.00;101086.63;5060028;28;20045;-79
2021/05/31 02:56:39;;;;;;;36.88;33.70;;;;;;;11.90;100.00;101087.50;5053193;28;20131;-78
2021/05/31 02:59:05;;;;;;;38.20;35.38;;;;;;;11.82;100.00;101087.66;5069003;28;20060;-79
2021/05/31 03:01:32;;;;;;;37.15;34.25;;;;;;;11.67;100.00;101082.53;5064453;28;20048;-79
2021/05/31 03:03:58;;;;;;;38.30;35.30;;;;;;;11.90;100.00;101084.84;5066874;28;20044;-79
2021/05/31 03:06:24;;;;;;;35.50;32.85;;;;;;;11.78;100.00;101081.13;5062015;28;20049;-79
2021/05/31 03:08:52;;;;;;;37.22;34.53;;;;;;;11.89;100.00;101086.69;5064677;28;20049;-79
2021/05/31 03:11:18;;;;;;;37.83;34.83;;;;;;;11.83;100.00;101083.97;5059353;28;20496;-79
2021/05/31 03:13:51;;;;;;;39.67;36.78;;;;;;;11.88;100.00;101085.03;5067429;28;20055;-79
2021/05/31 03:16:17;;;;;;;;;;;;;;;11.63;100.00;101087.47;5059717;28;20467;-78
2021/05/31 03:18:43;;;;;;;36.00;33.30;;;;;;;11.73;100.00;101091.56;5061105;28;19920;-81
2021/05/31 03:21:09;;;;;;;35.92;33.22;;;;;;;11.70;100.00;101082.94;5061191;28;20045;-79
2021/05/31 03:23:36;;;;;;;45.30;42.05;;;;;;;11.72;100.00;101074.78;5064298;28;20090;-79
2021/05/31 03:26:03;;;;;;;57.10;53.05;;;;;;;11.78;100.00;101089.94;5070927;28;20106;-78
2021/05/31 03:28:29;;;;;;;45.00;41.67;;;;;;;11.77;100.00;101090.13;5066144;28;20117;-78
2021/05/31 03:30:56;;;;;;;46.42;43.08;;;;;;;11.83;100.00;101082.16;5057002;28;20118;-79
2021/05/31 03:33:22;;;;;;;42.30;39.10;;;;;;;11.82;100.00;101096.47;5060964;28;20055;-77
2021/05/31 03:35:48;;;;;;;43.30;40.08;;;;;;;11.79;100.00;101083.56;5060726;28;20048;-79
2021/05/31 03:38:14;;;;;;;45.97;42.70;;;;;;;11.69;100.00;101086.66;5060596;28;20056;-79
2021/05/31 03:40:41;;;;;;;45.35;41.95;;;;;;;11.55;100.00;101085.00;5063725;28;20113;-78
2021/05/31 03:43:08;;;;;;;42.10;38.90;;;;;;;11.77;100.00;101085.63;5062694;28;20049;-78
2021/05/31 03:45:35;;;;;;;43.72;40.42;;;;;;;11.49;100.00;101083.13;5061237;28;20048;-79
2021/05/31 03:48:01;;;;;;;42.13;39.03;;;;;;;11.65;100.00;101085.41;5061209;28;20106;-78
2021/05/31 03:50:27;;;;;;;53.22;48.90;;;;;;;11.62;100.00;101093.81;5064982;28;20052;-78
2021/05/31 03:52:53;;;;;;;54.72;50.03;;;;;;;11.59;100.00;101090.72;5066733;28;20060;-78
2021/05/31 03:55:20;;;;;;;50.63;46.13;;;;;;;11.84;100.00;101091.75;5062590;28;20469;-77
2021/05/31 03:57:46;;;;;;;50.72;45.90;;;;;;;11.75;100.00;101093.00;5066618;28;20568;-77
2021/05/31 04:00:15;;;;;;;56.58;50.85;;;;;;;11.48;100.00;101086.00;5064083;28;20048;-77
2021/05/31 04:02:43;;;;;;;54.78;49.08;;;;;;;11.50;100.00;101089.28;5065993;28;20130;-79
2021/05/31 04:05:14;;;;;;;55.67;48.20;;;;;;;11.78;100.00;101094.44;5063337;28;20059;-78
2021/05/31 04:13:13;;;;;;;55.28;49.88;;;;;;;11.85;100.00;101092.59;5066697;28;20059;-79
2021/05/31 04:15:41;;;;;;;35.38;32.85;;;;;;;11.80;100.00;101095.03;5066946;28;20503;-78
2021/05/31 04:18:07;;;;;;;44.05;40.75;;;;;;;11.64;100.00;101093.59;5065480;28;20049;-78
2021/05/31 04:20:33;;;;;;;31.40;28.92;;;;;;;11.80;100.00;101095.88;5066779;28;20049;-78
2021/05/31 04:23:00;;;;;;;32.28;29.67;;;;;;;11.73;100.00;101096.88;5065524;28;20051;-78
2021/05/31 04:25:26;;;;;;;31.90;29.40;;;;;;;11.93;100.00;101095.06;5066146;28;20165;-78
2021/05/31 04:27:53;;;;;;;33.63;30.92;;;;;;;11.87;100.00;101094.06;5068097;28;20045;-79
2021/05/31 04:30:20;;;;;;;32.25;29.65;;;;;;;11.95;100.00;101084.19;5064517;28;20498;-78
2021/05/31 04:32:48;;;;;;;32.60;29.92;;;;;;;12.11;100.00;101089.94;5065273;28;20567;-79
2021/05/31 04:35:16;;;;;;;32.88;30.35;;;;;;;12.01;100.00;101091.38;5079976;22;20448;-88
2021/05/31 04:37:42;;;;;;;35.08;32.53;;;;;;;17.74;100.00;101092.13;5074554;28;20040;-85
2021/05/31 04:40:12;;;;;;;29.73;27.73;;;;;;;13.88;100.00;101076.16;5073352;28;20817;-87
2021/05/31 04:42:40;;;;;;;30.00;27.80;;;;;;;12.56;100.00;101067.91;5070428;28;20524;-87
2021/05/31 04:45:09;;;;;;;32.97;30.55;;;;;;;12.28;100.00;101073.50;5071872;28;20036;-87
2021/05/31 04:47:45;;;;;;;32.60;30.20;;;;;;;11.99;100.00;101083.59;5069520;28;20052;-86
2021/05/31 04:50:21;;;;;;;31.98;29.58;;;;;;;12.10;100.00;101076.81;5065673;28;20098;-87
2021/05/31 04:52:48;;;;;;;32.28;29.83;;;;;;;12.09;100.00;101078.66;5070950;28;20522;-87
2021/05/31 04:55:22;;;;;;;33.63;31.08;;;;;;;12.17;100.00;101071.50;5072852;28;20049;-87
2021/05/31 04:57:52;;;;;;;32.97;30.33;;;;;;;12.02;100.00;101077.88;5066602;28;20044;-87
2021/05/31 05:00:19;;;;;;;32.88;29.63;;;;;;;12.08;100.00;101070.91;5063098;28;20429;-87
2021/05/31 05:02:47;;;;;;;32.05;29.65;;;;;;;12.17;100.00;101071.50;5072628;28;20041;-87
2021/05/31 05:05:21;;;;;;;31.40;28.92;;;;;;;12.25;100.00;101072.06;5067068;28;20048;-87
2021/05/31 05:07:50;;;;;;;35.47;32.67;;;;;;;12.23;100.00;101074.16;5072836;28;20476;-86
2021/05/31 05:10:20;;;;;;;35.22;32.42;;;;;;;12.25;100.00;101080.06;5070890;28;20501;-87
2021/05/31 05:12:53;;;;;;;36.50;33.70;;;;;;;12.00;100.00;101074.59;5070248;28;20105;-87
2021/05/31 05:17:48;;;;;;;32.40;29.90;;;;;;;12.24;100.00;101082.94;5020705;28;20485;-78
2021/05/31 05:20:17;;;;;;;32.00;29.42;;;;;;;12.33;100.00;101087.84;5018962;28;20060;-79
2021/05/31 05:22:44;;;;;;;31.17;28.77;;;;;;;12.32;100.00;101088.06;4995833;28;20115;-78
2021/05/31 05:25:12;;;;;;;33.70;31.23;;;;;;;12.28;100.00;101084.97;5017730;28;20045;-79
2021/05/31 05:27:41;;;;;;;32.53;29.88;;;;;;;12.24;100.00;101088.28;5020395;28;20115;-77
2021/05/31 05:30:09;;;;;;;32.30;29.90;;;;;;;12.40;100.00;101093.16;5020675;28;20522;-80
2021/05/31 05:32:36;;;;;;;30.98;28.58;;;;;;;12.42;100.00;101083.13;5019099;28;20046;-78
2021/05/31 05:35:14;;;;;;;35.55;32.95;;;;;;;12.22;100.00;101085.00;5022506;28;20057;-78
2021/05/31 05:37:55;;;;;;;32.80;30.20;;;;;;;12.18;100.00;101083.78;5020267;28;20053;-80
2021/05/31 05:43:14;;;;;;;40.05;37.35;;;;;;;12.41;100.00;101080.69;5019895;28;20057;-79
2021/05/31 05:45:51;;;;;;;32.78;30.02;;;;;;;12.48;100.00;101087.59;5019491;28;20125;-78
2021/05/31 05:48:17;;;;;;;32.85;30.27;;;;;;;12.46;100.00;101089.66;5022564;28;20049;-78
2021/05/31 05:50:43;;;;;;;32.13;29.42;;;;;;;12.29;100.00;101077.84;5026559;28;20046;-78
2021/05/31 05:53:11;;;;;;;32.70;30.15;;;;;;;12.39;100.00;101083.53;4982181;28;20061;-77
2021/05/31 05:55:37;;;;;;;37.10;34.40;;;;;;;12.51;100.00;101078.38;5015531;28;20100;-77
2021/05/31 05:58:04;;;;;;;34.47;31.77;;;;;;;12.75;100.00;101079.53;5019980;28;20049;-78
2021/05/31 06:00:31;;;;;;;36.15;33.35;;;;;;;12.38;100.00;101081.91;5020582;28;20466;-80
2021/05/31 06:02:58;;;;;;;33.35;30.75;;;;;;;12.48;100.00;101076.94;5020310;28;20045;-80
2021/05/31 06:05:24;;;;;;;32.55;29.95;;;;;;;12.29;100.00;101077.84;5028650;28;20050;-78
2021/05/31 06:07:51;;;;;;;33.55;30.90;;;;;;;12.42;100.00;101082.31;5029433;28;20124;-76
2021/05/31 06:10:19;;;;;;;31.27;28.77;;;;;;;12.45;100.00;101076.56;5028373;28;20060;-78
2021/05/31 06:12:46;;;;;;;31.88;29.38;;;;;;;12.45;100.00;101073.88;5026890;28;20068;-77
2021/05/31 06:15:15;;;;;;;35.17;32.38;;;;;;;12.53;100.00;101084.31;5026536;28;20045;-79
2021/05/31 06:17:41;;;;;;;35.72;32.63;;;;;;;12.53;100.00;101071.81;5026840;28;20474;-78
2021/05/31 06:20:08;;;;;;;33.35;30.73;;;;;;;12.43;100.00;101073.28;5027898;28;20050;-79
2021/05/31 06:22:39;;;;;;;33.53;30.63;;;;;;;12.70;100.00;101077.47;5027218;28;20045;-78
2021/05/31 06:25:07;;;;;;;37.25;34.35;;;;;;;12.64;100.00;101081.00;5024152;28;20089;-79
2021/05/31 06:27:35;;;;;;;33.85;31.15;;;;;;;12.76;100.00;101073.97;5025900;28;20045;-79
2021/05/31 06:30:01;;;;;;;34.53;31.73;;;;;;;12.71;100.00;101076.47;5024188;28;20433;-78
2021/05/31 06:32:30;;;;;;;33.33;30.65;;;;;;;12.56;100.00;101079.38;5027169;28;20118;-78
2021/05/31 06:34:56;;;;;;;33.80;31.00;;;;;;;12.94;100.00;101083.94;5030584;28;20046;-77
2021/05/31 06:37:23;;;;;;;33.90;31.30;;;;;;;12.95;100.00;101074.09;5022774;28;20124;-79
2021/05/31 06:39:49;;;;;;;38.80;35.95;;;;;;;17.17;100.00;101076.94;5027700;28;20056;-79
2021/05/31 06:42:15;;;;;;;39.42;36.80;;;;;;;16.96;100.00;101054.28;5022632;28;20049;-79
2021/05/31 06:44:43;;;;;;;32.58;30.33;;;;;;;13.94;100.00;101057.41;5024320;28;20112;-79
2021/05/31 06:47:10;;;;;;;31.58;29.27;;;;;;;13.01;100.00;101057.25;5024069;28;20052;-78
2021/05/31 06:49:36;;;;;;;33.13;30.60;;;;;;;13.17;100.00;101067.41;5026594;28;20052;-79
2021/05/31 06:52:04;;;;;;;34.28;31.67;;;;;;;13.25;100.00;101075.22;5024494;28;20501;-78
2021/05/31 06:54:31;;;;;;;33.40;30.70;;;;;;;13.16;100.00;101078.28;5028959;28;20409;-79
2021/05/31 06:56:57;;;;;;;31.38;28.88;;;;;;;13.16;100.00;101075.63;5028616;28;20045;-80
2021/05/31 06:59:23;;;;;;;33.17;30.25;;;;;;;12.81;100.00;101076.00;5028233;28;20100;-79
2021/05/31 07:01:51;;;;;;;33.38;30.67;;;;;;;13.03;100.00;101074.66;5026272;28;20056;-79
2021/05/31 07:04:18;;;;;;;33.10;30.35;;;;;;;13.24;100.00;101086.03;5026185;28;20050;-79
2021/05/31 07:06:47;;;;;;;32.72;30.13;;;;;;;13.18;100.00;101078.91;5024254;28;20037;-80
2021/05/31 07:09:14;;;;;;;36.03;32.17;;;;;;;13.15;100.00;101079.34;5026925;28;20514;-79
2021/05/31 07:11:43;;;;;;;33.17;30.58;;;;;;;13.21;100.00;101089.16;5024478;28;20068;-79
2021/05/31 07:14:12;;;;;;;31.83;29.33;;;;;;;13.64;100.00;101085.81;5022337;28;20046;-79
2021/05/31 07:16:40;;;;;;;32.67;30.00;;;;;;;13.26;100.00;101084.84;5023843;28;20061;-79
2021/05/31 07:19:08;;;;;;;31.75;29.25;;;;;;;13.35;100.00;101087.25;5022386;28;20050;-79
2021/05/31 07:21:34;;;;;;;31.30;28.80;;;;;;;13.43;100.00;101087.78;5023846;28;20811;-79
2021/05/31 07:24:00;;;;;;;31.52;28.95;;;;;;;13.29;100.00;101078.25;5024059;28;20555;-78
2021/05/31 07:26:26;;;;;;;33.67;30.98;;;;;;;13.32;100.00;101091.16;5026942;28;20401;-79
2021/05/31 07:28:53;;;;;;;33.97;31.33;;;;;;;13.45;100.00;101090.25;5023302;28;20056;-78
2021/05/31 07:31:19;;;;;;;32.55;30.08;;;;;;;13.51;100.00;101089.41;5023790;28;20037;-80
2021/05/31 07:33:45;;;;;;;32.67;30.27;;;;;;;13.27;100.00;101090.97;5024314;28;20049;-79
2021/05/31 07:36:16;;;;;;;30.58;28.38;;;;;;;13.32;100.00;101091.16;5070223;23;20529;-87
2021/05/31 07:38:43;;;;;;;32.50;30.00;;;;;;;13.70;100.00;101090.28;5068343;28;20084;-88
2021/05/31 07:41:10;;;;;;;32.60;30.10;;;;;;;13.43;100.00;101093.13;5068078;28;20053;-87
2021/05/31 07:43:39;;;;;;;35.85;33.05;;;;;;;13.20;100.00;101092.84;5065688;28;20539;-87
2021/05/31 07:46:06;;;;;;;32.58;30.17;;;;;;;13.07;100.00;101089.22;5061185;28;20045;-88
2021/05/31 07:48:36;;;;;;;34.20;31.42;;;;;;;13.27;100.00;101088.31;5062891;28;20071;-87
2021/05/31 07:51:17;;;;;;;32.05;29.65;;;;;;;13.04;100.00;101086.97;5064276;28;20041;-87
2021/05/31 07:53:52;;;;;;;32.40;30.08;;;;;;;13.33;100.00;101087.47;5062984;28;20131;-87
2021/05/31 07:56:27;;;;;;;32.25;29.55;;;;;;;13.30;100.00;101087.88;5066909;28;20044;-88
2021/05/31 07:58:55;;;;;;;32.53;30.13;;;;;;;13.33;100.00;101083.97;5056703;28;20045;-87
2021/05/31 08:01:47;;;;;;;33.53;31.13;;;;;;;13.51;100.00;101089.41;5060951;28;20049;-87
2021/05/31 08:04:16;;;;;;;30.58;28.35;;;;;;;13.34;100.00;101080.25;5064278;28;20053;-87
2021/05/31 08:06:49;;;;;;;30.70;28.35;;;;;;;13.43;100.00;101076.31;5064325;28;20044;-87
2021/05/31 08:09:21;;;;;;;31.95;29.70;;;;;;;13.47;100.00;101086.34;5059237;28;20049;-87
2021/05/31 08:11:48;;;;;;;31.92;29.52;;;;;;;13.52;100.00;101077.69;5065045;28;20533;-87
2021/05/31 08:14:18;;;;;;;30.63;28.33;;;;;;;13.59;100.00;101074.97;5063975;28;20037;-87
2021/05/31 08:16:48;;;;;;;34.38;31.77;;;;;;;13.69;100.00;101075.31;5063882;28;20041;-88
2021/05/31 08:19:16;;;;;;;31.27;28.98;;;;;;;13.43;100.00;101071.78;5064834;28;20514;-87
2021/05/31 08:21:50;;;;;;;31.80;29.30;;;;;;;13.37;100.00;101074.50;5057940;28;20048;-87
2021/05/31 08:24:20;;;;;;;33.70;31.00;;;;;;;13.32;100.00;101080.50;5057964;28;20102;-86
2021/05/31 08:26:47;;;;;;;34.40;31.75;;;;;;;13.20;100.00;101083.00;5065666;28;20045;-87
2021/05/31 08:29:14;;;;;;;36.67;33.88;;;;;;;13.40;100.00;101098.09;5058198;28;20055;-88
2021/05/31 08:31:43;;;;;;;37.03;34.20;;;;;;;13.50;100.00;101091.25;5068916;28;20049;-87
2021/05/31 08:34:11;;;;;;;33.28;30.80;;;;;;;13.37;100.00;101090.50;5069934;28;20048;-87
2021/05/31 08:36:41;;;;;;;33.10;30.80;;;;;;;13.24;100.00;101086.84;5068570;28;20106;-87
2021/05/31 08:39:15;;;;;;;33.55;31.05;;;;;;;13.44;100.00;101085.97;5062305;28;20421;-87
2021/05/31 08:41:45;;;;;;;35.00;32.28;;;;;;;13.46;100.00;101079.38;5058980;28;20278;-88
2021/05/31 08:44:12;;;;;;;34.63;32.03;;;;;;;13.56;100.00;101073.56;5060647;28;20555;-88
2021/05/31 08:46:39;;;;;;;34.90;32.20;;;;;;;13.32;100.00;101079.69;5071176;28;20041;-87
2021/05/31 08:49:09;;;;;;;34.53;31.92;;;;;;;13.16;100.00;101072.97;5068212;28;20056;-86
2021/05/31 08:51:40;;;;;;;32.60;30.33;;;;;;;13.21;100.00;101078.47;5069299;28;20063;-87
2021/05/31 08:54:07;;;;;;;33.13;30.83;;;;;;;13.47;100.00;101083.69;5068887;28;20493;-88
2021/05/31 08:57:01;;;;;;;33.35;30.85;;;;;;;13.28;100.00;101082.78;5072531;28;20071;-88
2021/05/31 08:59:28;;;;;;;34.30;31.80;;;;;;;13.23;100.00;101087.91;5060343;28;20079;-88
2021/05/31 09:01:56;;;;;;;33.67;31.10;;;;;;;13.57;100.00;101080.53;5069004;28;20056;-87
2021/05/31 09:04:24;;;;;;;33.97;31.48;;;;;;;13.56;100.00;101081.56;5071384;28;20052;-87
2021/05/31 09:09:42;;;;;;;49.13;45.13;;;;;;;13.37;100.00;101074.50;5057271;28;20453;-86
2021/05/31 09:12:12;;;;;;;38.95;36.08;;;;;;;13.33;100.00;101075.97;5061570;28;20064;-87
2021/05/31 09:14:40;;;;;;;34.53;32.03;;;;;;;13.37;100.00;101074.50;5067240;28;20127;-86
2021/05/31 09:17:06;;;;;;;33.20;30.80;;;;;;;13.44;100.00;101078.78;5072480;28;20061;-87
2021/05/31 09:19:34;;;;;;;37.20;34.55;;;;;;;13.43;100.00;101079.78;5072365;28;20058;-87
2021/05/31 09:22:04;;;;;;;34.88;32.38;;;;;;;13.38;100.00;101076.97;5073166;28;20048;-87
2021/05/31 09:24:32;;;;;;;33.97;31.38;;;;;;;13.50;100.00;101071.75;5054908;28;20056;-87
2021/05/31 09:27:00;;;;;;;33.22;30.83;;;;;;;13.38;100.00;101084.16;5062759;28;20558;-86
2021/05/31 09:29:32;;;;;;;34.15;31.67;;;;;;;13.39;100.00;101080.44;5066961;28;20056;-87
2021/05/31 09:32:00;;;;;;;33.08;30.67;;;;;;;13.52;100.00;101083.00;5066019;28;20426;-86
2021/05/31 09:34:35;;;;;;;32.65;30.25;;;;;;;13.30;100.00;101082.56;5067387;28;20056;-86
2021/05/31 09:37:03;;;;;;;32.97;30.55;;;;;;;13.35;100.00;101085.41;5064835;28;20414;-88
2021/05/31 09:39:34;;;;;;;33.30;30.90;;;;;;;13.26;100.00;101084.03;5060562;28;20413;-87
2021/05/31 09:42:03;;;;;;;31.00;28.80;;;;;;;13.51;100.00;101090.22;5071624;28;20041;-88
2021/05/31 09:44:30;;;;;;;32.40;30.08;;;;;;;13.52;100.00;101091.88;5063823;28;20049;-88
2021/05/31 09:46:57;;;;;;;32.45;30.05;;;;;;;13.47;100.00;101090.88;5066443;28;20068;-87
2021/05/31 09:49:26;;;;;;;32.53;30.20;;;;;;;13.46;100.00;101073.22;5072566;28;20547;-88
2021/05/31 09:51:55;;;;;;;30.90;28.70;;;;;;;13.39;100.00;101081.25;5069638;28;20084;-87
2021/05/31 09:54:36;;;;;;;32.53;30.20;;;;;;;13.71;100.00;101068.72;5066144;28;20045;-87
2021/05/31 09:57:16;;;;;;;33.85;31.30;;;;;;;13.74;100.00;101070.13;5058377;28;20044;-88
2021/05/31 09:59:46;;;;;;;33.40;30.88;;;;;;;13.74;100.00;101078.16;5069946;28;20522;-87
2021/05/31 10:02:19;;;;;;;35.55;32.80;;;;;;;13.69;100.00;101078.78;5067350;28;21536;-87
2021/05/31 10:05:12;;;;;;;33.28;30.88;;;;;;;13.81;100.00;101068.22;5053886;28;20053;-87
2021/05/31 10:10:20;;;;;;;30.77;28.58;;;;;;;13.83;100.00;101065.31;5069408;28;20131;-87
2021/05/31 10:12:48;;;;;;;30.90;28.50;;;;;;;14.04;100.00;101061.44;5065697;28;20052;-87
2021/05/31 10:15:19;;;;;;;31.63;28.95;;;;;;;13.81;100.00;101062.06;5063145;28;20516;-87
2021/05/31 10:17:47;;;;;;;32.78;30.35;;;;;;;14.17;100.00;101061.31;5059973;28;20060;-87
2021/05/31 10:20:27;;;;;;;35.38;32.67;;;;;;;14.16;100.00;101057.84;5063185;28;20049;-87
2021/05/31 10:22:55;;;;;;;33.08;30.58;;;;;;;14.19;100.00;101056.53;5059649;28;20041;-87
2021/05/31 10:25:24;;;;;;;32.63;30.23;;;;;;;13.83;100.00;101043.97;5060556;28;20041;-86
2021/05/31 10:28:04;;;;;;;38.00;35.10;;;;;;;14.14;100.00;101043.88;5064656;28;20094;-87
2021/05/31 10:30:41;;;;;;;37.22;34.47;;;;;;;14.17;100.00;101047.97;5059563;28;20044;-87
2021/05/31 10:33:12;;;;;;;34.55;31.92;;;;;;;13.93;100.00;101045.09;5060565;28;20421;-88
2021/05/31 10:35:41;;;;;;;35.35;32.65;;;;;;;14.37;100.00;101031.69;5060918;28;20098;-87
2021/05/31 10:38:14;;;;;;;33.22;30.92;;;;;;;14.36;100.00;101035.41;5061878;28;20044;-87
2021/05/31 10:40:45;;;;;;;34.65;32.17;;;;;;;14.66;100.00;101027.47;5061211;28;20455;-87
2021/05/31 10:46:42;;;;;;;34.10;31.77;;;;;;;14.90;100.00;101009.69;5066493;28;20538;-87
2021/05/31 10:49:10;;;;;;;33.90;31.70;;;;;;;14.46;100.00;101005.50;5063021;28;20131;-87
2021/05/31 10:51:38;;;;;;;34.30;32.10;;;;;;;14.76;100.00;101002.88;5068072;28;20044;-87
2021/05/31 10:54:13;;;;;;;36.13;33.97;;;;;;;15.13;100.00;101006.28;5064115;28;20490;-88
2021/05/31 10:56:41;;;;;;;31.45;29.55;;;;;;;15.41;100.00;100986.88;5065674;28;20497;-88
2021/05/31 10:59:10;;;;;;;33.60;31.40;;;;;;;15.29;100.00;100989.53;5067084;28;20059;-87
2021/05/31 11:01:40;;;;;;;32.47;30.55;;;;;;;15.48;100.00;100984.09;5062534;28;20102;-87
2021/05/31 11:04:23;;;;;;;32.35;30.45;;;;;;;15.70;100.00;100997.75;5055166;28;20057;-87
2021/05/31 11:06:52;;;;;;;30.88;28.98;;;;;;;15.94;100.00;100987.84;5068813;28;20041;-87
2021/05/31 11:09:24;;;;;;;32.90;30.70;;;;;;;15.32;100.00;100996.31;5069671;28;20059;-87
2021/05/31 11:12:04;;;;;;;33.33;30.58;;;;;;;15.78;100.00;100992.84;5067511;28;20052;-85
2021/05/31 11:14:40;;;;;;;33.33;31.05;;;;;;;15.75;100.00;101003.22;5067765;28;20052;-87
2021/05/31 11:17:26;;;;;;;34.25;32.00;;;;;;;15.62;100.00;101000.75;5066270;28;20429;-87
2021/05/31 11:19:54;;;;;;;34.03;31.67;;;;;;;15.53;100.00;101000.28;5065522;28;20080;-88
2021/05/31 11:22:24;;;;;;;36.70;34.20;;;;;;;15.24;100.00;100999.31;5055413;28;20049;-86
2021/05/31 11:24:52;;;;;;;37.35;34.78;;;;;;;15.33;100.00;100996.06;5068726;28;20063;-87
2021/05/31 11:27:22;;;;;;;34.97;32.67;;;;;;;15.28;100.00;100998.63;5059810;28;20091;-88
2021/05/31 11:29:51;;;;;;;35.45;33.25;;;;;;;15.27;100.00;100991.63;5064828;28;20110;-87
2021/05/31 11:32:21;;;;;;;35.65;33.35;;;;;;;15.24;100.00;100983.25;5068273;28;20036;-88
2021/05/31 11:34:53;;;;;;;39.05;36.25;;;;;;;15.33;100.00;100992.56;5060961;28;20083;-87